Time;durP1;ratioP1;P1;durP2;ratioP2;P2;SDS_P1;SDS_P2;PMS_P1;PMS_P2;Temp;Humidity;BMP_temperature;BMP_pressure;BME280_temperature;BME280_humidity;BME280_pressure;Samples;Min_cycle;Max_cycle;Signal;HPM_P1;HPM_P2
2024/01/06 00:01:50;;;;;;;12.55;8.27;;;1.50;99.90;;;;;;5095954;28;20039;-88
2024/01/06 00:04:15;;;;;;;10.38;7.22;;;2.20;99.90;;;;;;5095865;28;20547;-88
2024/01/06 00:06:41;;;;;;;10.98;7.50;;;1.90;99.90;;;;;;5095553;28;20121;-86
2024/01/06 00:09:07;;;;;;;11.20;7.43;;;1.50;99.90;;;;;;5095700;28;20050;-85
2024/01/06 00:11:32;;;;;;;9.80;7.43;;;1.50;99.90;;;;;;5113801;28;20441;-85
2024/01/06 00:13:58;;;;;;;11.00;8.00;;;1.50;99.90;;;;;;5094029;28;20054;-84
2024/01/06 00:16:24;;;;;;;10.77;7.57;;;2.40;99.90;;;;;;5113796;28;20080;-86
2024/01/06 00:18:50;;;;;;;9.77;7.22;;;1.40;99.90;;;;;;5078227;28;20095;-85
2024/01/06 00:21:16;;;;;;;13.65;7.97;;;1.40;99.90;;;;;;5095518;28;20040;-82
2024/01/06 00:23:41;;;;;;;11.20;7.70;;;1.30;99.90;;;;;;5093593;28;20527;-86
2024/01/06 00:26:08;;;;;;;9.65;6.80;;;0.90;99.90;;;;;;5095410;28;20046;-85
2024/01/06 00:28:34;;;;;;;11.48;7.85;;;1.30;99.90;;;;;;5094629;28;20071;-86
2024/01/06 00:30:59;;;;;;;11.52;7.70;;;1.40;99.90;;;;;;5094655;28;20135;-84
2024/01/06 00:33:25;;;;;;;12.88;8.07;;;1.40;99.90;;;;;;5113324;28;20035;-85
2024/01/06 00:35:51;;;;;;;11.98;8.38;;;1.40;99.90;;;;;;5095576;28;20153;-87
2024/01/06 00:38:17;;;;;;;13.48;7.90;;;1.70;99.90;;;;;;5094308;28;20499;-84
2024/01/06 00:40:42;;;;;;;11.55;7.03;;;1.80;99.90;;;;;;5095165;28;20160;-84
2024/01/06 00:43:08;;;;;;;12.95;7.75;;;1.20;99.90;;;;;;5077995;28;20044;-83
2024/01/06 00:45:33;;;;;;;12.10;8.63;;;1.30;99.90;;;;;;5078026;28;20381;-84
2024/01/06 00:47:59;;;;;;;13.60;8.27;;;2.10;99.90;;;;;;5095350;28;20135;-84
2024/01/06 00:50:25;;;;;;;12.20;8.60;;;1.30;99.90;;;;;;5095099;28;20036;-83
2024/01/06 00:52:52;;;;;;;14.25;8.57;;;1.30;99.90;;;;;;5113582;28;20044;-84
2024/01/06 00:55:21;;;;;;;12.00;8.05;;;2.10;99.90;;;;;;5082314;28;20047;-84
2024/01/06 00:57:47;;;;;;;13.75;8.30;;;1.40;99.90;;;;;;5125257;27;20039;-84
2024/01/06 01:00:13;;;;;;;12.88;7.97;;;1.20;99.90;;;;;;5095334;28;20043;-84
2024/01/06 01:02:39;;;;;;;13.93;8.60;;;1.30;99.90;;;;;;5098872;28;20090;-83
2024/01/06 01:05:05;;;;;;;15.93;8.85;;;1.40;99.90;;;;;;5098940;28;20108;-84
2024/01/06 01:07:30;;;;;;;15.07;8.73;;;1.20;99.90;;;;;;5097798;28;20050;-83
2024/01/06 01:09:56;;;;;;;13.32;8.80;;;2.50;99.90;;;;;;5098182;28;20115;-85
2024/01/06 01:12:23;;;;;;;12.95;8.20;;;1.00;99.90;;;;;;5098879;28;20050;-84
2024/01/06 01:14:50;;;;;;;15.63;7.70;;;1.20;99.90;;;;;;5098747;28;20067;-83
2024/01/06 01:17:16;;;;;;;11.20;7.05;;;1.20;99.90;;;;;;5124636;27;20031;-84
2024/01/06 01:19:42;;;;;;;10.50;6.70;;;2.10;99.90;;;;;;5080900;28;20046;-83
2024/01/06 01:22:07;;;;;;;10.73;6.63;;;1.20;99.90;;;;;;5098521;28;20048;-84
2024/01/06 01:24:33;;;;;;;9.95;6.70;;;1.60;99.90;;;;;;5098363;28;20156;-84
2024/01/06 01:26:59;;;;;;;11.45;7.03;;;1.50;99.90;;;;;;5116069;27;20093;-83
2024/01/06 01:29:25;;;;;;;10.38;6.93;;;1.20;99.90;;;;;;5125009;27;20066;-83
2024/01/06 01:31:50;;;;;;;12.52;7.22;;;0.90;99.90;;;;;;5116239;28;20477;-83
2024/01/06 01:34:16;;;;;;;10.90;6.93;;;1.50;99.90;;;;;;5098427;28;20043;-83
2024/01/06 01:36:42;;;;;;;9.48;6.80;;;2.00;99.90;;;;;;5124682;27;20394;-83
2024/01/06 01:39:07;;;;;;;12.15;7.78;;;1.10;99.90;;;;;;5111008;28;20035;-84
2024/01/06 01:41:33;;;;;;;15.68;7.32;;;1.10;99.90;;;;;;5115948;28;20036;-83
2024/01/06 01:43:59;;;;;;;11.15;6.55;;;1.50;99.90;;;;;;5098569;28;20044;-84
2024/01/06 01:46:26;;;;;;;10.68;6.78;;;1.10;99.90;;;;;;5097509;27;20537;-83
2024/01/06 01:48:54;;;;;;;9.90;7.03;;;1.00;99.90;;;;;;5123946;27;20126;-83
2024/01/06 01:51:21;;;;;;;10.38;6.82;;;1.00;99.90;;;;;;5097855;28;20048;-84
2024/01/06 01:53:47;;;;;;;10.60;7.13;;;1.80;99.90;;;;;;5098086;28;20054;-83
2024/01/06 01:56:13;;;;;;;10.15;6.75;;;0.40;99.90;;;;;;5109446;27;20047;-83
2024/01/06 01:58:39;;;;;;;12.70;7.05;;;1.90;99.90;;;;;;5094479;28;20040;-83
2024/01/06 02:01:05;;;;;;;9.02;5.80;;;1.70;99.90;;;;;;5080616;28;20136;-84
2024/01/06 02:03:31;;;;;;;10.73;6.53;;;1.00;99.90;;;;;;5097765;28;20131;-84
2024/01/06 02:05:56;;;;;;;8.95;5.93;;;1.30;99.90;;;;;;5096891;28;20091;-83
2024/01/06 02:08:22;;;;;;;9.95;6.65;;;1.00;99.90;;;;;;5096434;28;20043;-83
2024/01/06 02:10:48;;;;;;;11.80;7.18;;;1.00;99.90;;;;;;5097290;28;20047;-83
2024/01/06 02:13:14;;;;;;;9.13;6.63;;;1.70;99.90;;;;;;5096814;28;20492;-83
2024/01/06 02:15:40;;;;;;;9.05;6.22;;;1.30;99.90;;;;;;5116101;28;20358;-83
2024/01/06 02:18:06;;;;;;;9.20;5.70;;;1.90;99.90;;;;;;5123304;27;20043;-83
2024/01/06 02:20:32;;;;;;;8.93;6.15;;;1.00;99.90;;;;;;5097304;28;20048;-83
2024/01/06 02:23:00;;;;;;;10.65;6.90;;;1.30;99.90;;;;;;5115335;28;20043;-84
2024/01/06 02:25:26;;;;;;;9.90;6.47;;;1.50;99.90;;;;;;5080944;28;20395;-83
2024/01/06 02:27:51;;;;;;;12.98;6.47;;;1.00;99.90;;;;;;5116858;27;20126;-83
2024/01/06 02:30:17;;;;;;;10.57;6.88;;;1.00;99.90;;;;;;5107826;28;20736;-83
2024/01/06 02:32:43;;;;;;;11.13;7.10;;;1.00;99.90;;;;;;5115383;28;20036;-83
2024/01/06 02:35:08;;;;;;;11.10;6.35;;;1.60;99.90;;;;;;5114837;28;20044;-83
2024/01/06 02:37:34;;;;;;;16.90;8.13;;;1.50;99.90;;;;;;5097013;28;20050;-83
2024/01/06 02:39:59;;;;;;;12.82;7.85;;;1.00;99.90;;;;;;5095677;28;20047;-83
2024/01/06 02:42:25;;;;;;;13.60;8.70;;;1.00;99.90;;;;;;5117507;27;20103;-83
2024/01/06 02:44:51;;;;;;;13.15;7.82;;;1.50;99.90;;;;;;5117534;27;20039;-83
2024/01/06 02:47:17;;;;;;;14.38;8.52;;;1.10;99.90;;;;;;5100588;27;20043;-83
2024/01/06 02:49:43;;;;;;;11.95;7.80;;;1.00;99.90;;;;;;5114205;27;20038;-83
2024/01/06 02:52:08;;;;;;;11.65;8.57;;;1.00;99.90;;;;;;5098362;28;20089;-83
2024/01/06 02:54:34;;;;;;;14.20;8.57;;;0.90;99.90;;;;;;5079694;28;20036;-85
2024/01/06 02:57:00;;;;;;;16.40;9.43;;;1.00;99.90;;;;;;5095917;28;20039;-83
2024/01/06 02:59:25;;;;;;;14.90;8.90;;;1.50;99.90;;;;;;5097059;28;20047;-83
2024/01/06 03:01:51;;;;;;;18.77;9.45;;;1.00;99.90;;;;;;5095376;28;20046;-83
2024/01/06 03:04:17;;;;;;;14.10;8.38;;;2.30;99.90;;;;;;5114590;28;20536;-83
2024/01/06 03:06:42;;;;;;;14.07;9.52;;;1.00;99.90;;;;;;5095824;28;20040;-83
2024/01/06 03:09:08;;;;;;;21.35;9.73;;;0.90;99.90;;;;;;5096601;28;20035;-84
2024/01/06 03:11:34;;;;;;;18.60;10.63;;;1.10;99.90;;;;;;5096036;28;20509;-83
2024/01/06 03:13:59;;;;;;;15.90;9.55;;;1.00;99.90;;;;;;5116724;27;20142;-83
2024/01/06 03:16:25;;;;;;;16.08;9.23;;;1.00;99.90;;;;;;5125519;27;20036;-83
2024/01/06 03:18:51;;;;;;;17.30;10.70;;;1.40;99.90;;;;;;5079601;28;20046;-83
2024/01/06 03:21:18;;;;;;;16.17;10.43;;;1.40;99.90;;;;;;5095726;27;20462;-83
2024/01/06 03:23:43;;;;;;;15.55;9.30;;;1.00;99.90;;;;;;5104582;28;20048;-84
2024/01/06 03:26:09;;;;;;;16.27;9.48;;;1.00;99.90;;;;;;5096160;28;20044;-83
2024/01/06 03:28:35;;;;;;;17.05;10.15;;;1.50;99.90;;;;;;5096597;28;20131;-83
2024/01/06 03:31:00;;;;;;;13.65;9.43;;;1.00;99.90;;;;;;5095729;28;20487;-84
2024/01/06 03:33:26;;;;;;;14.05;9.32;;;1.60;99.90;;;;;;5095517;28;20046;-86
2024/01/06 03:35:51;;;;;;;14.82;9.15;;;1.50;99.90;;;;;;5112284;28;20094;-84
2024/01/06 03:38:17;;;;;;;15.55;9.18;;;1.60;99.90;;;;;;5114192;28;20043;-83
2024/01/06 03:40:43;;;;;;;13.88;9.38;;;1.00;99.90;;;;;;5113043;28;20411;-83
2024/01/06 03:43:08;;;;;;;15.50;8.95;;;1.00;99.90;;;;;;5115627;27;20407;-83
2024/01/06 03:45:34;;;;;;;16.27;9.55;;;1.00;99.90;;;;;;5125904;27;20441;-83
2024/01/06 03:47:59;;;;;;;15.60;9.43;;;1.30;99.90;;;;;;5079047;28;20407;-83
2024/01/06 03:50:25;;;;;;;14.38;9.43;;;1.00;99.90;;;;;;5095985;28;20044;-83
2024/01/06 03:52:51;;;;;;;12.50;7.97;;;1.00;99.90;;;;;;5097247;27;20074;-84
2024/01/06 03:55:16;;;;;;;14.93;9.02;;;1.30;99.90;;;;;;5114404;27;20112;-83
2024/01/06 03:57:42;;;;;;;14.15;8.35;;;1.00;99.90;;;;;;5095753;28;20053;-83
2024/01/06 04:00:08;;;;;;;15.07;8.88;;;1.10;99.90;;;;;;5113759;28;20126;-83
2024/01/06 04:02:34;;;;;;;15.75;8.13;;;1.00;99.90;;;;;;5114939;27;20423;-82
2024/01/06 04:05:00;;;;;;;17.05;8.93;;;1.80;99.90;;;;;;5100348;27;20032;-85
2024/01/06 04:07:25;;;;;;;14.45;8.20;;;1.20;99.90;;;;;;5092131;28;20462;-83
2024/01/06 04:09:51;;;;;;;14.50;8.95;;;1.00;99.90;;;;;;5092166;28;20156;-84
2024/01/06 04:12:17;;;;;;;16.00;9.55;;;1.80;99.90;;;;;;5094282;28;20389;-84
2024/01/06 04:14:42;;;;;;;14.82;9.23;;;2.00;99.90;;;;;;5109302;27;20476;-83
2024/01/06 04:17:08;;;;;;;14.77;8.45;;;0.90;99.90;;;;;;5093553;28;20400;-83
2024/01/06 04:19:33;;;;;;;17.42;9.35;;;1.40;99.90;;;;;;5092137;28;20085;-83
2024/01/06 04:22:00;;;;;;;13.55;8.75;;;1.00;99.90;;;;;;5093455;28;20043;-84
2024/01/06 04:24:25;;;;;;;15.50;9.15;;;1.00;99.90;;;;;;5102910;28;20097;-84
2024/01/06 04:26:51;;;;;;;14.68;9.13;;;0.80;99.90;;;;;;5092903;28;20052;-85
2024/01/06 04:29:17;;;;;;;14.23;7.43;;;1.10;99.90;;;;;;5095630;28;20042;-84
2024/01/06 04:31:42;;;;;;;16.40;8.23;;;1.30;99.90;;;;;;5095681;28;20054;-84
2024/01/06 04:34:08;;;;;;;12.73;7.47;;;1.00;99.90;;;;;;5113419;28;20039;-83
2024/01/06 04:36:34;;;;;;;13.95;6.85;;;1.00;99.90;;;;;;5090802;28;20040;-83
2024/01/06 04:38:59;;;;;;;13.52;7.47;;;1.00;99.90;;;;;;5092156;28;20047;-84
2024/01/06 04:41:25;;;;;;;14.85;7.15;;;0.50;99.90;;;;;;5093218;28;20040;-84
2024/01/06 04:43:51;;;;;;;12.10;6.95;;;1.00;99.90;;;;;;5096342;28;20043;-84
2024/01/06 04:46:16;;;;;;;11.35;7.32;;;1.00;99.90;;;;;;5091654;28;20086;-83
2024/01/06 04:48:43;;;;;;;19.42;8.35;;;1.00;99.90;;;;;;5091746;28;20102;-84
2024/01/06 04:51:10;;;;;;;9.82;7.45;;;1.40;99.90;;;;;;5094126;28;20047;-83
2024/01/06 04:53:38;;;;;;;20.13;8.55;;;1.50;99.90;;;;;;5113144;28;20047;-83
2024/01/06 04:56:04;;;;;;;14.43;8.23;;;1.00;99.90;;;;;;5091893;28;20047;-83
2024/01/06 04:58:30;;;;;;;13.80;7.88;;;1.00;99.90;;;;;;5074950;28;20062;-84
2024/01/06 05:00:56;;;;;;;14.25;8.80;;;1.00;99.90;;;;;;5093134;28;20047;-83
2024/01/06 05:03:22;;;;;;;13.95;7.70;;;1.60;99.90;;;;;;5093045;28;20124;-84
2024/01/06 05:05:47;;;;;;;13.85;8.63;;;2.10;99.90;;;;;;5092433;28;20497;-83
2024/01/06 05:08:13;;;;;;;13.88;7.90;;;1.20;99.90;;;;;;5093117;28;20109;-84
2024/01/06 05:10:39;;;;;;;14.95;8.13;;;1.00;99.90;;;;;;5112053;28;20422;-83
2024/01/06 05:13:04;;;;;;;13.35;8.55;;;1.10;99.90;;;;;;5091321;28;20147;-84
2024/01/06 05:15:30;;;;;;;13.05;7.70;;;1.40;99.90;;;;;;5091737;28;20127;-84
2024/01/06 05:17:56;;;;;;;15.30;7.85;;;0.50;99.90;;;;;;5058627;28;20101;-83
2024/01/06 05:20:21;;;;;;;12.38;7.25;;;1.10;99.90;;;;;;5092692;28;20048;-83
2024/01/06 05:22:47;;;;;;;12.63;7.32;;;1.10;99.90;;;;;;5074556;28;20050;-83
2024/01/06 05:25:12;;;;;;;11.85;7.25;;;1.50;99.90;;;;;;5074694;28;20131;-83
2024/01/06 05:27:38;;;;;;;12.10;7.53;;;2.60;99.90;;;;;;5085138;28;20050;-83
2024/01/06 05:30:04;;;;;;;12.32;7.28;;;1.00;99.90;;;;;;5075891;28;20039;-84
2024/01/06 05:32:33;;;;;;;14.82;8.25;;;1.00;99.90;;;;;;5092537;28;20123;-83
2024/01/06 05:34:59;;;;;;;11.40;7.78;;;1.10;99.90;;;;;;5092501;28;20074;-82
2024/01/06 05:37:24;;;;;;;14.38;7.55;;;1.80;99.90;;;;;;5090840;28;20047;-84
2024/01/06 05:39:50;;;;;;;15.82;8.23;;;1.90;99.90;;;;;;5076624;28;20098;-83
2024/01/06 05:42:15;;;;;;;12.88;8.35;;;1.10;99.90;;;;;;5096187;28;20036;-83
2024/01/06 05:44:41;;;;;;;13.02;8.32;;;1.10;99.90;;;;;;5078160;28;20407;-83
2024/01/06 05:47:08;;;;;;;12.90;8.25;;;1.70;99.90;;;;;;5078161;28;20043;-84
2024/01/06 05:49:33;;;;;;;14.48;8.38;;;1.10;99.90;;;;;;5092170;28;20130;-83
2024/01/06 05:51:59;;;;;;;12.50;8.23;;;1.10;99.90;;;;;;5105491;28;20166;-83
2024/01/06 05:54:25;;;;;;;15.73;8.18;;;2.80;99.90;;;;;;5091988;28;20373;-83
2024/01/06 05:56:51;;;;;;;13.93;8.75;;;1.10;99.90;;;;;;5098509;28;20256;-83
2024/01/06 05:59:17;;;;;;;17.98;8.65;;;1.20;99.90;;;;;;5096105;28;20040;-83
2024/01/06 06:01:43;;;;;;;13.35;8.23;;;1.10;99.90;;;;;;5097666;28;20130;-83
2024/01/06 06:04:11;;;;;;;17.60;7.93;;;1.30;99.90;;;;;;5097924;28;20060;-83
2024/01/06 06:06:37;;;;;;;14.48;8.70;;;1.20;99.90;;;;;;5092839;28;20438;-84
2024/01/06 06:09:06;;;;;;;14.63;7.90;;;1.20;99.90;;;;;;5096676;28;20047;-84
2024/01/06 06:11:35;;;;;;;14.07;8.75;;;1.20;99.90;;;;;;5077696;28;20076;-84
2024/01/06 06:14:02;;;;;;;14.27;9.02;;;1.70;99.90;;;;;;5090378;28;20484;-84
2024/01/06 06:16:28;;;;;;;17.23;9.10;;;1.20;99.90;;;;;;5095560;28;20048;-84
2024/01/06 06:18:54;;;;;;;15.43;9.27;;;1.60;99.90;;;;;;5093874;28;20040;-84
2024/01/06 06:21:20;;;;;;;13.38;8.57;;;1.20;99.90;;;;;;5060711;28;20055;-84
2024/01/06 06:23:46;;;;;;;15.45;8.90;;;2.30;99.90;;;;;;5077222;28;20488;-84
2024/01/06 06:26:12;;;;;;;14.13;9.02;;;1.30;99.90;;;;;;5095361;28;20044;-84
2024/01/06 06:28:38;;;;;;;14.43;9.25;;;1.80;99.90;;;;;;5097805;28;20109;-84
2024/01/06 06:31:04;;;;;;;14.40;9.30;;;1.60;99.90;;;;;;5115197;28;20044;-83
2024/01/06 06:33:30;;;;;;;15.98;9.10;;;1.70;99.90;;;;;;5097288;28;20122;-84
2024/01/06 06:35:55;;;;;;;16.35;9.20;;;1.90;99.90;;;;;;5078378;28;20036;-84
2024/01/06 06:38:21;;;;;;;16.00;9.63;;;1.30;99.90;;;;;;5095019;28;20051;-84
2024/01/06 06:40:47;;;;;;;16.25;9.27;;;1.30;99.90;;;;;;5096136;28;20038;-84
2024/01/06 06:43:13;;;;;;;13.85;9.02;;;1.20;99.90;;;;;;5095014;28;20054;-83
2024/01/06 06:45:39;;;;;;;14.73;9.40;;;1.70;99.90;;;;;;5094126;28;20048;-83
2024/01/06 06:48:05;;;;;;;15.38;8.98;;;1.80;99.90;;;;;;5094608;28;20119;-83
2024/01/06 06:50:31;;;;;;;12.98;9.18;;;1.30;99.90;;;;;;5096796;28;20040;-83
2024/01/06 06:52:56;;;;;;;15.45;8.73;;;1.70;99.90;;;;;;5079724;28;20049;-83
2024/01/06 06:55:22;;;;;;;14.10;9.15;;;1.30;99.90;;;;;;5096565;28;20043;-83
2024/01/06 06:57:48;;;;;;;17.50;9.45;;;2.20;99.90;;;;;;5097190;28;20134;-83
2024/01/06 07:00:14;;;;;;;14.38;9.05;;;1.30;99.90;;;;;;5115571;28;20079;-83
2024/01/06 07:02:40;;;;;;;14.95;9.60;;;1.30;99.90;;;;;;5088022;28;20040;-84
2024/01/06 07:05:06;;;;;;;14.38;8.25;;;1.80;99.90;;;;;;5093324;28;20093;-83
2024/01/06 07:07:33;;;;;;;15.90;9.90;;;1.30;99.90;;;;;;5093896;28;20051;-83
2024/01/06 07:10:01;;;;;;;13.38;8.43;;;1.80;99.90;;;;;;5076043;28;20040;-83
2024/01/06 07:12:27;;;;;;;14.73;9.48;;;1.30;99.90;;;;;;5076022;28;20056;-83
2024/01/06 07:14:53;;;;;;;13.70;9.23;;;1.30;99.90;;;;;;5113264;28;20035;-83
2024/01/06 07:17:18;;;;;;;13.75;9.30;;;1.30;99.90;;;;;;5078658;28;20067;-84
2024/01/06 07:19:44;;;;;;;13.85;9.43;;;1.30;99.90;;;;;;5076467;28;20050;-83
2024/01/06 07:22:10;;;;;;;12.73;8.90;;;2.00;99.90;;;;;;5059597;28;20044;-84
2024/01/06 07:24:36;;;;;;;20.15;10.10;;;1.60;99.90;;;;;;5074951;28;20121;-83
2024/01/06 07:27:03;;;;;;;13.20;9.25;;;1.30;99.90;;;;;;5076591;28;20052;-83
2024/01/06 07:29:29;;;;;;;21.27;10.85;;;1.30;99.90;;;;;;5076353;28;20047;-83
2024/01/06 07:31:54;;;;;;;12.80;8.55;;;1.80;99.90;;;;;;5093508;28;20508;-83
2024/01/06 07:34:20;;;;;;;16.58;10.10;;;1.60;99.90;;;;;;5094926;28;20036;-84
2024/01/06 07:36:46;;;;;;;17.20;11.32;;;1.90;99.90;;;;;;5075970;28;20442;-83
2024/01/06 07:39:11;;;;;;;18.55;11.13;;;1.50;99.90;;;;;;5076254;28;20043;-83
2024/01/06 07:41:37;;;;;;;15.15;10.15;;;1.50;99.90;;;;;;5094151;28;20116;-83
2024/01/06 07:44:03;;;;;;;18.35;10.82;;;1.30;99.90;;;;;;5075890;28;20040;-84
2024/01/06 07:46:29;;;;;;;17.40;10.63;;;1.30;99.90;;;;;;5093953;28;20047;-84
2024/01/06 07:48:55;;;;;;;16.83;11.73;;;1.90;99.90;;;;;;5094010;28;20051;-85
2024/01/06 07:51:21;;;;;;;18.95;10.27;;;1.30;99.90;;;;;;5074259;28;20044;-84
2024/01/06 07:53:46;;;;;;;16.92;9.55;;;1.30;99.90;;;;;;5075485;28;20055;-85
2024/01/06 07:56:12;;;;;;;15.07;10.35;;;1.30;99.90;;;;;;5094612;28;20396;-84
2024/01/06 07:58:38;;;;;;;15.23;10.20;;;1.30;99.90;;;;;;5075584;28;20411;-83
2024/01/06 08:01:03;;;;;;;16.83;10.52;;;1.70;99.90;;;;;;5075557;28;20048;-84
2024/01/06 08:03:29;;;;;;;15.35;9.75;;;1.30;99.90;;;;;;5075038;28;20048;-83
2024/01/06 08:10:04;;;;;;;15.23;9.48;;;1.40;99.90;;;;;;5093581;28;20081;-83
2024/01/06 08:12:30;;;;;;;17.63;10.20;;;1.40;99.90;;;;;;5096753;28;20492;-83
2024/01/06 08:14:56;;;;;;;15.60;9.57;;;2.20;99.90;;;;;;5095510;28;20048;-83
2024/01/06 08:17:22;;;;;;;16.60;9.82;;;1.60;99.90;;;;;;5084895;28;20036;-84
2024/01/06 08:19:47;;;;;;;16.58;10.02;;;0.90;99.90;;;;;;5093113;28;20052;-84
2024/01/06 08:22:14;;;;;;;15.88;10.32;;;1.80;99.90;;;;;;5093276;28;20040;-84
2024/01/06 08:24:39;;;;;;;16.23;10.30;;;1.40;99.90;;;;;;5093388;28;20377;-85
2024/01/06 08:27:05;;;;;;;19.88;10.82;;;1.30;99.90;;;;;;5075393;28;20047;-84
2024/01/06 08:29:31;;;;;;;19.35;9.82;;;1.40;99.90;;;;;;5075257;28;20040;-84
2024/01/06 08:31:57;;;;;;;16.92;10.35;;;1.90;99.90;;;;;;5104876;28;20484;-83
2024/01/06 08:34:22;;;;;;;17.85;11.70;;;1.40;99.90;;;;;;5107615;28;20572;-84
2024/01/06 08:36:48;;;;;;;18.27;10.90;;;1.70;99.90;;;;;;5074864;28;20396;-84
2024/01/06 08:39:14;;;;;;;16.70;9.90;;;0.80;99.90;;;;;;5093221;28;20154;-84
2024/01/06 08:41:40;;;;;;;15.68;10.18;;;2.40;99.90;;;;;;5093683;28;20043;-84
2024/01/06 08:44:05;;;;;;;13.23;9.40;;;1.50;99.90;;;;;;5076112;28;20047;-83
2024/01/06 08:46:31;;;;;;;16.23;9.25;;;1.50;99.90;;;;;;5093896;28;20137;-85
2024/01/06 08:48:57;;;;;;;15.85;9.95;;;1.70;99.90;;;;;;5093014;28;20086;-83
2024/01/06 08:51:23;;;;;;;15.63;9.45;;;2.20;99.90;;;;;;5075389;28;20044;-84
2024/01/06 08:53:49;;;;;;;16.27;10.30;;;2.00;99.90;;;;;;5074774;28;20048;-83
2024/01/06 08:56:17;;;;;;;17.25;10.60;;;1.50;99.90;;;;;;5074881;28;20387;-83
2024/01/06 08:58:43;;;;;;;15.75;9.90;;;1.50;99.90;;;;;;5075141;28;20047;-83
2024/01/06 09:01:09;;;;;;;15.88;9.25;;;1.50;99.90;;;;;;5074777;28;20093;-84
2024/01/06 09:03:35;;;;;;;16.27;8.70;;;2.50;99.90;;;;;;5074758;28;20052;-83
2024/01/06 09:06:00;;;;;;;13.15;8.63;;;1.80;99.90;;;;;;5077555;28;20039;-83
2024/01/06 09:08:26;;;;;;;14.07;8.93;;;1.80;99.90;;;;;;5094928;28;20476;-83
2024/01/06 09:10:55;;;;;;;12.95;8.70;;;1.60;99.90;;;;;;5113534;28;20042;-83
2024/01/06 09:13:21;;;;;;;13.70;9.10;;;2.00;99.90;;;;;;5094797;28;20462;-84
2024/01/06 09:15:47;;;;;;;14.23;9.15;;;1.60;99.90;;;;;;5089739;28;20454;-83
2024/01/06 09:18:13;;;;;;;15.43;9.27;;;1.80;99.90;;;;;;5077352;28;20126;-82
2024/01/06 09:20:39;;;;;;;16.52;10.13;;;1.60;99.90;;;;;;5082802;28;20047;-84
2024/01/06 09:23:04;;;;;;;14.35;9.30;;;1.70;99.90;;;;;;5096318;28;20063;-84
2024/01/06 09:25:30;;;;;;;13.88;9.30;;;1.70;99.90;;;;;;5080031;28;20044;-84
2024/01/06 09:27:56;;;;;;;17.50;10.02;;;2.30;99.90;;;;;;5089443;28;20109;-84
2024/01/06 09:30:21;;;;;;;16.65;9.32;;;1.70;99.90;;;;;;5080818;28;20032;-84
2024/01/06 09:32:47;;;;;;;17.45;9.95;;;2.10;99.90;;;;;;5078979;28;20040;-85
2024/01/06 09:35:13;;;;;;;15.57;9.82;;;1.90;99.90;;;;;;5089188;28;20039;-84
2024/01/06 09:37:40;;;;;;;14.98;8.73;;;1.70;99.90;;;;;;5114412;28;20422;-85
2024/01/06 09:40:10;;;;;;;15.93;9.77;;;1.70;99.90;;;;;;5095092;28;20036;-84
2024/01/06 09:42:36;;;;;;;16.30;10.35;;;1.70;99.90;;;;;;5113669;28;20422;-85
2024/01/06 09:45:02;;;;;;;17.23;9.88;;;0.80;99.90;;;;;;5090197;28;20105;-84
2024/01/06 09:47:30;;;;;;;16.73;10.82;;;1.70;99.90;;;;;;5097195;28;20097;-83
2024/01/06 09:49:59;;;;;;;16.30;10.63;;;2.40;99.90;;;;;;5106576;28;20040;-84
2024/01/06 09:52:26;;;;;;;17.20;10.05;;;2.30;99.90;;;;;;5078756;28;20086;-84
2024/01/06 09:54:54;;;;;;;17.00;9.35;;;1.70;99.90;;;;;;5078715;28;20043;-85
2024/01/06 09:57:23;;;;;;;14.43;9.85;;;1.70;99.90;;;;;;5107697;28;20445;-84
2024/01/06 09:59:49;;;;;;;16.77;9.55;;;1.70;99.90;;;;;;5098362;28;20094;-84
2024/01/06 10:02:16;;;;;;;15.80;10.52;;;2.10;99.90;;;;;;5113492;28;20063;-85
2024/01/06 10:04:43;;;;;;;16.67;10.25;;;1.70;99.90;;;;;;5096754;28;20426;-84
2024/01/06 10:07:12;;;;;;;15.40;10.50;;;2.80;99.90;;;;;;5095974;28;20047;-83
2024/01/06 10:09:37;;;;;;;16.50;10.50;;;1.70;99.90;;;;;;5097273;28;20510;-84
2024/01/06 10:12:03;;;;;;;15.07;9.48;;;1.70;99.90;;;;;;5097006;28;20040;-84
2024/01/06 10:14:29;;;;;;;18.95;11.13;;;1.70;99.90;;;;;;5084841;28;20039;-84
2024/01/06 10:16:55;;;;;;;15.30;10.15;;;1.70;99.90;;;;;;5116156;28;20373;-84
2024/01/06 10:19:23;;;;;;;16.23;10.38;;;1.70;99.90;;;;;;5066580;28;20041;-83
2024/01/06 10:21:49;;;;;;;15.88;10.13;;;1.70;99.90;;;;;;5057277;28;20439;-83
2024/01/06 10:24:17;;;;;;;16.88;9.85;;;1.80;99.90;;;;;;5074195;28;20048;-83
2024/01/06 10:26:42;;;;;;;16.58;10.60;;;2.10;99.90;;;;;;5073758;28;20055;-84
2024/01/06 10:29:08;;;;;;;14.07;9.30;;;1.90;99.90;;;;;;5073956;28;20036;-83
2024/01/06 10:31:34;;;;;;;17.15;9.73;;;1.90;99.90;;;;;;5088735;28;20054;-83
2024/01/06 10:34:00;;;;;;;17.08;10.35;;;2.60;99.90;;;;;;5115570;28;20047;-85
2024/01/06 10:36:26;;;;;;;13.15;9.43;;;2.20;99.90;;;;;;5115608;28;20035;-84
2024/01/06 10:38:55;;;;;;;16.10;9.73;;;2.50;99.90;;;;;;5080469;28;20135;-84
2024/01/06 10:41:22;;;;;;;15.70;10.00;;;2.00;99.90;;;;;;5097225;28;20050;-84
2024/01/06 10:43:51;;;;;;;13.68;9.60;;;2.10;99.90;;;;;;5093950;28;20122;-84
2024/01/06 10:46:19;;;;;;;14.40;9.32;;;2.60;99.90;;;;;;5087198;28;20039;-84
2024/01/06 10:48:46;;;;;;;13.23;9.35;;;2.10;99.90;;;;;;5113481;28;20119;-84
2024/01/06 10:51:13;;;;;;;15.13;9.75;;;2.10;99.90;;;;;;5084492;28;20374;-84
2024/01/06 10:53:43;;;;;;;13.38;9.18;;;2.60;99.90;;;;;;5087950;28;20069;-85
2024/01/06 10:56:12;;;;;;;12.40;8.80;;;3.00;99.90;;;;;;5094471;28;20047;-86
2024/01/06 10:58:47;;;;;;;15.15;9.73;;;3.60;99.90;;;;;;5115535;28;20042;-86
2024/01/06 11:01:13;;;;;;;14.48;8.93;;;2.10;99.90;;;;;;5096924;28;20065;-87
2024/01/06 11:03:39;;;;;;;12.02;8.52;;;2.20;99.90;;;;;;5095749;28;20040;-84
2024/01/06 11:06:07;;;;;;;13.05;8.40;;;2.50;99.90;;;;;;5057071;28;20064;-84
2024/01/06 11:08:55;;;;;;;12.73;8.30;;;2.20;99.90;;;;;;5057494;28;20133;-85
2024/01/06 11:11:23;;;;;;;13.15;8.60;;;2.20;99.90;;;;;;5080306;28;20039;-84
2024/01/06 11:13:49;;;;;;;12.45;8.38;;;2.90;99.90;;;;;;5064895;28;20404;-88
2024/01/06 11:16:34;;;;;;;12.45;8.02;;;2.30;99.90;;;;;;5096876;28;20074;-87
2024/01/06 11:19:00;;;;;;;13.65;8.95;;;2.60;99.90;;;;;;5111032;28;20036;-84
2024/01/06 11:21:25;;;;;;;12.45;8.48;;;2.50;99.90;;;;;;5105935;28;20040;-84
2024/01/06 11:24:06;;;;;;;12.52;8.35;;;2.90;99.90;;;;;;5101780;28;20035;-85
2024/01/06 11:26:32;;;;;;;12.68;8.52;;;2.00;99.90;;;;;;5096401;28;20040;-86
2024/01/06 11:28:59;;;;;;;13.57;8.30;;;2.00;99.90;;;;;;5092117;28;20040;-85
2024/01/06 11:31:32;;;;;;;11.65;7.45;;;2.00;99.90;;;;;;5093211;28;20397;-86
2024/01/06 11:34:21;;;;;;;10.48;6.88;;;2.00;99.90;;;;;;5094126;28;20052;-85
2024/01/06 11:36:50;;;;;;;9.35;6.43;;;2.80;99.90;;;;;;5092021;28;20124;-86
2024/01/06 11:39:38;;;;;;;8.50;6.05;;;2.00;99.90;;;;;;5094066;28;20039;-86
2024/01/06 11:42:04;;;;;;;8.10;5.85;;;2.00;99.90;;;;;;5093729;28;20044;-85
2024/01/06 11:44:33;;;;;;;10.27;6.28;;;2.00;99.90;;;;;;5092780;28;20075;-84
2024/01/06 11:46:59;;;;;;;9.52;6.85;;;3.50;99.90;;;;;;5092815;28;20492;-85
2024/01/06 11:49:29;;;;;;;10.68;7.10;;;2.50;99.90;;;;;;5092629;28;20134;-86
2024/01/06 11:51:55;;;;;;;10.32;6.72;;;2.40;99.90;;;;;;5105634;28;20024;-86
2024/01/06 11:54:22;;;;;;;8.70;6.47;;;2.20;99.90;;;;;;5091447;28;20476;-85
2024/01/06 11:56:48;;;;;;;9.63;6.15;;;1.90;99.90;;;;;;5092336;28;20048;-85
2024/01/06 11:59:14;;;;;;;11.05;6.65;;;2.00;99.90;;;;;;5092609;28;20525;-84
2024/01/06 12:01:40;;;;;;;10.18;7.15;;;2.00;99.90;;;;;;5092428;28;20036;-83
2024/01/06 12:04:06;;;;;;;9.00;6.13;;;2.60;99.90;;;;;;5093869;28;20128;-84
2024/01/06 12:06:33;;;;;;;12.30;7.20;;;2.00;99.90;;;;;;5091939;28;20051;-87
2024/01/06 12:09:06;;;;;;;10.40;6.22;;;1.90;99.90;;;;;;5092214;28;20032;-85
2024/01/06 12:11:32;;;;;;;9.02;5.60;;;1.90;99.90;;;;;;5075297;28;20492;-86
2024/01/06 12:13:57;;;;;;;10.82;5.85;;;1.80;99.90;;;;;;5093370;28;20120;-87
2024/01/06 12:16:27;;;;;;;10.63;6.22;;;2.00;99.90;;;;;;5071708;28;20093;-85
2024/01/06 12:18:57;;;;;;;8.05;5.57;;;2.20;99.90;;;;;;5055867;28;20051;-86
2024/01/06 12:21:27;;;;;;;8.98;5.47;;;2.80;99.90;;;;;;5076379;28;20036;-86
2024/01/06 12:23:52;;;;;;;9.02;5.60;;;1.80;99.90;;;;;;5075752;28;20051;-89
2024/01/06 12:26:18;;;;;;;8.13;5.47;;;2.70;99.90;;;;;;5091736;28;20047;-87
2024/01/06 12:28:49;;;;;;;8.00;5.53;;;1.80;99.90;;;;;;5079451;28;20105;-85
2024/01/06 12:31:15;;;;;;;10.98;6.03;;;1.80;99.90;;;;;;5093844;28;20036;-91
2024/01/06 12:33:41;;;;;;;9.10;5.85;;;2.30;99.90;;;;;;5093055;28;20047;-84
2024/01/06 12:36:14;;;;;;;9.88;6.63;;;1.90;99.90;;;;;;5103649;28;20042;-84
2024/01/06 12:38:42;;;;;;;8.45;5.88;;;1.80;99.90;;;;;;5113873;28;20076;-85
2024/01/06 12:41:08;;;;;;;8.88;5.65;;;2.40;99.90;;;;;;5107972;28;20485;-83
2024/01/06 12:43:33;;;;;;;8.68;6.00;;;2.60;99.90;;;;;;5075094;28;20070;-86
2024/01/06 12:45:59;;;;;;;10.40;6.47;;;1.40;99.90;;;;;;5074822;28;20480;-86